createdAt,value
2023-03-10T00:01:53.635Z,65886.44
2023-03-10T00:06:57.966Z,65860.34
2023-03-10T00:12:02.373Z,65835.56
2023-03-10T00:17:08.610Z,65782.72
2023-03-10T00:22:13.128Z,65589.47
2023-03-10T00:27:17.385Z,65627.25
2023-03-10T00:32:23.106Z,65681.69
2023-03-10T00:37:27.522Z,65686.16
2023-03-10T00:42:31.796Z,65664.81
2023-03-10T00:47:37.604Z,65691.84
2023-03-10T00:52:41.838Z,65596.31
2023-03-10T00:57:48.497Z,65704.56
2023-03-10T01:02:54.636Z,65761.81
2023-03-10T01:07:59.214Z,65776.66
2023-03-10T01:13:03.584Z,65700.47
2023-03-10T01:18:09.312Z,65699.84
2023-03-10T01:23:17.380Z,65717.91
2023-03-10T01:28:22.465Z,65773.00
2023-03-10T01:33:28.423Z,65765.44
2023-03-10T01:38:32.688Z,65668.97
2023-03-10T01:43:39.954Z,65741.06
2023-03-10T01:48:45.437Z,65776.75
2023-03-10T01:53:49.972Z,65882.16
2023-03-10T01:58:55.366Z,65904.72
2023-03-10T02:04:04.837Z,65799.66
2023-03-10T02:09:12.356Z,65855.41
2023-03-10T02:14:17.070Z,65778.78
2023-03-10T02:19:48.813Z,65738.28
2023-03-10T02:24:56.084Z,65803.03
2023-03-10T02:30:06.943Z,65743.63
2023-03-10T02:35:13.559Z,65768.19
2023-03-10T02:40:34.132Z,65799.66
2023-03-10T02:45:48.176Z,65799.94
2023-03-10T02:50:54.594Z,65811.59
2023-03-10T02:56:00.599Z,65642.19
2023-03-10T03:01:09.837Z,65804.56
2023-03-10T03:06:17.974Z,65698.13
2023-03-10T03:11:23.380Z,65804.13
2023-03-10T03:16:29.553Z,65805.19
2023-03-10T03:21:38.197Z,65796.09
2023-03-10T03:26:42.726Z,65795.47
2023-03-10T03:31:55.469Z,65763.94
2023-03-10T03:37:04.700Z,65777.72
2023-03-10T03:42:13.825Z,65797.69
2023-03-10T03:47:27.750Z,65766.06
2023-03-10T03:52:33.360Z,65796.00
2023-03-10T03:57:38.312Z,65803.03
2023-03-10T04:02:44.779Z,65821.56
2023-03-10T04:07:50.200Z,65766.69
2023-03-10T04:12:56.211Z,65831.91
2023-03-10T04:18:03.009Z,65895.53
2023-03-10T04:23:07.400Z,65884.84
2023-03-10T04:28:13.494Z,65841.53
2023-03-10T04:33:19.556Z,65861.19
2023-03-10T04:38:26.347Z,65884.22
2023-03-10T04:43:31.226Z,65837.69
2023-03-10T04:48:37.576Z,65861.75
2023-03-10T04:53:41.971Z,65819.97
2023-03-10T04:58:47.233Z,65880.28
2023-03-10T05:03:53.010Z,65876.63
2023-03-10T05:08:58.132Z,65827.53
2023-03-10T05:14:02.512Z,65938.22
2023-03-10T05:19:08.701Z,65856.50
2023-03-10T05:24:13.727Z,65940.34
2023-03-10T05:29:20.915Z,65843.56
2023-03-10T05:34:32.475Z,65922.16
2023-03-10T05:39:39.470Z,65921.72
2023-03-10T05:44:48.546Z,65939.38
2023-03-10T05:49:54.487Z,65958.56
2023-03-10T05:54:59.654Z,66038.38
2023-03-10T06:00:04.666Z,66039.00
2023-03-10T06:05:18.992Z,66003.50
2023-03-10T06:10:22.997Z,66084.88
2023-03-10T06:15:28.374Z,66110.59
2023-03-10T06:20:34.418Z,66092.84
2023-03-10T06:25:39.324Z,66155.06
2023-03-10T06:30:43.698Z,66246.81
2023-03-10T06:35:49.523Z,66299.31
2023-03-10T06:40:53.776Z,66245.22
2023-03-10T06:45:58.772Z,66217.31
2023-03-10T06:51:07.940Z,66240.91
2023-03-10T06:56:14.872Z,66228.50
2023-03-10T07:01:26.060Z,66291.41
2023-03-10T07:06:31.896Z,66277.31
2023-03-10T07:11:36.385Z,66217.78
2023-03-10T07:16:41.193Z,66349.91
2023-03-10T07:21:46.946Z,66347.75
2023-03-10T07:26:51.213Z,66318.78
2023-03-10T07:31:55.615Z,66343.44
2023-03-10T07:37:01.308Z,66357.88
2023-03-10T07:42:05.917Z,66466.94
2023-03-10T07:47:10.951Z,66485.03
2023-03-10T07:52:18.271Z,66530.78
2023-03-10T07:57:22.677Z,66428.66
2023-03-10T08:02:27.765Z,66416.31
2023-03-10T08:07:34.046Z,66501.16
2023-03-10T08:12:38.521Z,66497.31
2023-03-10T08:17:42.841Z,66501.16
2023-03-10T08:22:48.574Z,66552.81
2023-03-10T08:27:52.873Z,66584.53
2023-03-10T08:32:57.413Z,66605.13
2023-03-10T08:38:03.282Z,66618.94
2023-03-10T08:43:07.187Z,66593.66
2023-03-10T08:48:11.582Z,66604.34
2023-03-10T08:53:17.361Z,66604.50
2023-03-10T08:58:21.417Z,66593.75
2023-03-10T09:03:26.095Z,66632.91
2023-03-10T09:08:31.897Z,66658.75
2023-03-10T09:13:36.559Z,66640.38
2023-03-10T09:18:41.528Z,66649.06
2023-03-10T09:23:49.301Z,66676.41
2023-03-10T09:28:56.764Z,66686.81
2023-03-10T09:34:01.400Z,66698.00
2023-03-10T09:39:07.254Z,66754.53
2023-03-10T09:44:24.235Z,66743.81
2023-03-10T09:49:36.885Z,66736.69
2023-03-10T09:54:53.068Z,66749.59
2023-03-10T10:00:01.139Z,66808.34
2023-03-10T10:05:15.546Z,66773.91
2023-03-10T10:10:25.842Z,66772.81
2023-03-10T10:15:35.288Z,66756.59
2023-03-10T10:20:43.861Z,66827.22
2023-03-10T10:25:50.527Z,66828.28
2023-03-10T10:31:12.256Z,66870.22
2023-03-10T10:36:18.868Z,66844.97
2023-03-10T10:41:28.732Z,66819.13
2023-03-10T10:46:33.137Z,66830.44
2023-03-10T10:51:38.911Z,66838.13
2023-03-10T10:56:53.513Z,66824.44
2023-03-10T11:01:59.175Z,66831.03
2023-03-10T11:07:17.486Z,66835.81
2023-03-10T11:12:29.732Z,66884.28
2023-03-10T11:17:39.678Z,66891.91
2023-03-10T11:22:47.510Z,66885.28
2023-03-10T11:28:03.421Z,66868.59
2023-03-10T11:33:10.292Z,66898.91
2023-03-10T11:38:30.777Z,66938.16
2023-03-10T11:43:45.637Z,66906.84
2023-03-10T11:49:07.439Z,66896.22
2023-03-10T11:54:16.398Z,66944.66
2023-03-10T11:59:23.893Z,66970.97
2023-03-10T12:04:34.214Z,67031.00
2023-03-10T12:09:42.485Z,67068.59
2023-03-10T12:14:49.264Z,67048.22
2023-03-10T12:20:25.887Z,67077.28
2023-03-10T12:25:47.321Z,67076.28
2023-03-10T12:30:56.515Z,67061.03
2023-03-10T12:36:05.245Z,67178.81
2023-03-10T12:41:10.326Z,67267.34
2023-03-10T12:46:20.734Z,67157.22
2023-03-10T12:51:30.188Z,67292.22
2023-03-10T12:56:39.929Z,67377.00
2023-03-10T13:01:55.451Z,67345.09
2023-03-10T13:07:04.022Z,67339.09
2023-03-10T13:12:15.928Z,67266.75
2023-03-10T13:17:27.291Z,67305.16
2023-03-10T13:22:31.376Z,67272.16
2023-03-10T13:27:36.622Z,67371.09
2023-03-10T13:32:43.380Z,67268.84
2023-03-10T13:38:05.139Z,67328.47
2023-03-10T13:43:27.939Z,67270.00
2023-03-10T13:48:35.275Z,67248.38
2023-03-10T13:53:39.436Z,67271.56
2023-03-10T13:58:44.367Z,67239.81
2023-03-10T14:03:56.356Z,67146.88
2023-03-10T14:09:14.919Z,67126.97
2023-03-10T14:14:29.146Z,67166.31
2023-03-10T14:19:51.079Z,67187.38
2023-03-10T14:24:55.395Z,67148.44
2023-03-10T14:30:03.720Z,67081.66
2023-03-10T14:35:12.995Z,67130.25
2023-03-10T14:40:18.322Z,67199.78
2023-03-10T14:45:29.034Z,67208.34
2023-03-10T14:50:35.653Z,67244.13
2023-03-10T14:55:40.396Z,67239.75
2023-03-10T15:00:44.764Z,67153.78
2023-03-10T15:05:50.390Z,67035.22
2023-03-10T15:10:54.661Z,66961.50
2023-03-10T15:15:59.054Z,66970.44
2023-03-10T15:21:04.676Z,66905.91
2023-03-10T15:26:11.181Z,66813.03
2023-03-10T15:31:15.525Z,66768.50
2023-03-10T15:36:21.314Z,66758.88
2023-03-10T15:41:25.542Z,66766.34
2023-03-10T15:46:29.781Z,66766.34
2023-03-10T15:51:35.295Z,66729.75
2023-03-10T15:56:39.702Z,66734.06
2023-03-10T16:01:43.980Z,66706.63
2023-03-10T16:06:49.558Z,66665.19
2023-03-10T16:11:53.771Z,66671.66
2023-03-10T16:16:58.676Z,66669.41
2023-03-10T16:22:04.172Z,66679.19
2023-03-10T16:27:08.417Z,66641.00
2023-03-10T16:32:14.206Z,66638.75
2023-03-10T16:37:19.880Z,66646.28
2023-03-10T16:42:26.350Z,66593.59
2023-03-10T16:47:30.475Z,66627.47
2023-03-10T16:52:40.610Z,66674.25
2023-03-10T16:57:45.277Z,66619.31
2023-03-10T17:02:49.861Z,66621.72
2023-03-10T17:08:02.347Z,66581.78
2023-03-10T17:13:06.492Z,66552.81
2023-03-10T17:18:10.572Z,66613.56
2023-03-10T17:23:16.249Z,66665.13
2023-03-10T17:28:20.530Z,66608.66
2023-03-10T17:33:24.825Z,66588.13
2023-03-10T17:38:30.327Z,66525.41
2023-03-10T17:43:36.185Z,66533.47
2023-03-10T17:48:40.251Z,66544.13
2023-03-10T17:53:46.942Z,66545.75
2023-03-10T17:58:51.629Z,66602.19
2023-03-10T18:03:56.155Z,66597.34
2023-03-10T18:09:04.648Z,66568.34
2023-03-10T18:14:09.461Z,66535.09
2023-03-10T18:19:15.406Z,66614.03
2023-03-10T18:24:21.266Z,66619.94
2023-03-10T18:29:25.234Z,66616.19
2023-03-10T18:34:29.624Z,66605.88
2023-03-10T18:39:35.426Z,66590.44
2023-03-10T18:44:45.742Z,66529.16
2023-03-10T18:49:50.193Z,66606.50
2023-03-10T18:54:55.951Z,66577.47
2023-03-10T19:00:01.107Z,66553.34
2023-03-10T19:05:06.059Z,66594.22
2023-03-10T19:10:15.323Z,66574.16
2023-03-10T19:15:19.553Z,66526.56
2023-03-10T19:20:24.006Z,66519.50
2023-03-10T19:25:29.557Z,66491.47
2023-03-10T19:30:34.910Z,66486.28
2023-03-10T19:35:39.978Z,66492.09
2023-03-10T19:40:48.402Z,66484.59
2023-03-10T19:45:52.493Z,66518.41
2023-03-10T19:50:57.034Z,66513.59
2023-03-10T19:56:04.853Z,66456.03
2023-03-10T20:01:14.266Z,66532.31
2023-03-10T20:06:18.629Z,66475.38
2023-03-10T20:11:25.195Z,66433.50
2023-03-10T20:16:29.738Z,66418.97
2023-03-10T20:21:34.343Z,66366.44
2023-03-10T20:26:40.211Z,66307.06
2023-03-10T20:31:44.510Z,66402.34
2023-03-10T20:36:49.119Z,66457.66
2023-03-10T20:41:54.975Z,66414.78
2023-03-10T20:46:59.083Z,66340.16
2023-03-10T20:52:03.436Z,66418.44
2023-03-10T20:57:09.457Z,66492.00
2023-03-10T21:02:16.778Z,66492.09
2023-03-10T21:07:21.282Z,66468.94
2023-03-10T21:12:27.067Z,66433.50
2023-03-10T21:17:31.301Z,66402.50
2023-03-10T21:22:36.054Z,66333.72
2023-03-10T21:27:41.723Z,66337.91
2023-03-10T21:32:46.846Z,66332.09
2023-03-10T21:37:51.035Z,66295.00
2023-03-10T21:42:56.536Z,66267.66
2023-03-10T21:48:00.864Z,66268.72
2023-03-10T21:53:06.425Z,66192.03
2023-03-10T21:58:11.994Z,66232.78
2023-03-10T22:03:16.089Z,66270.34
2023-03-10T22:08:21.075Z,66209.19
2023-03-10T22:13:26.760Z,66225.38
2023-03-10T22:18:30.958Z,66205.53
2023-03-10T22:23:35.058Z,66171.84
2023-03-10T22:28:40.904Z,66123.91
2023-03-10T22:33:45.435Z,66167.94
2023-03-10T22:38:49.813Z,66185.06
2023-03-10T22:43:56.118Z,66257.47
2023-03-10T22:49:00.570Z,66201.16
2023-03-10T22:54:05.082Z,66202.75
2023-03-10T22:59:10.692Z,66267.19
2023-03-10T23:04:14.925Z,66271.94
2023-03-10T23:09:19.251Z,66273.53
2023-03-10T23:14:24.897Z,66305.28
2023-03-10T23:19:29.073Z,66222.16
2023-03-10T23:24:33.285Z,66301.97
2023-03-10T23:29:38.984Z,66288.56
2023-03-10T23:34:43.171Z,66222.31
2023-03-10T23:39:47.581Z,66206.97
2023-03-10T23:44:53.070Z,66259.25
2023-03-10T23:49:57.340Z,66315.84
2023-03-10T23:55:01.776Z,66346.97
